Time;durP1;ratioP1;P1;durP2;ratioP2;P2;SDS_P1;SDS_P2;PMS_P1;PMS_P2;Temp;Humidity;BMP_temperature;BMP_pressure;BME280_temperature;BME280_humidity;BME280_pressure;Samples;Min_cycle;Max_cycle;Signal;HPM_P1;HPM_P2
2021/01/07 00:01:23;;;;;;;8.00;5.95;;;-0.90;98.00;;;;;;5035697;28;20100;-69
2021/01/07 00:03:49;;;;;;;9.70;5.82;;;-0.90;98.00;;;;;;5028114;28;20033;-68
2021/01/07 00:06:15;;;;;;;9.23;6.22;;;-0.90;98.00;;;;;;5036066;28;20037;-69
2021/01/07 00:08:42;;;;;;;9.77;6.75;;;-0.90;98.00;;;;;;5036660;28;20025;-69
2021/01/07 00:11:09;;;;;;;9.82;6.22;;;-0.90;98.00;;;;;;5034093;28;20026;-69
2021/01/07 00:13:35;;;;;;;9.23;6.50;;;-0.90;98.00;;;;;;5036456;28;20022;-67
2021/01/07 00:16:02;;;;;;;9.85;6.55;;;-1.00;98.00;;;;;;5036599;28;20112;-67
2021/01/07 00:18:27;;;;;;;9.50;6.63;;;-0.90;98.00;;;;;;5036717;28;20346;-71
2021/01/07 00:20:53;;;;;;;12.43;7.40;;;-0.90;98.00;;;;;;5034089;28;20025;-69
2021/01/07 00:23:19;;;;;;;11.68;6.93;;;-0.90;98.00;;;;;;5034309;28;20107;-69
2021/01/07 00:25:49;;;;;;;7.47;5.20;;;-0.90;98.00;;;;;;5034590;28;20036;-69
2021/01/07 00:28:16;;;;;;;9.60;6.70;;;-0.80;98.00;;;;;;5035464;28;20048;-68
2021/01/07 00:30:46;;;;;;;8.05;5.68;;;-0.80;98.00;;;;;;5036047;28;20057;-68
2021/01/07 00:33:13;;;;;;;8.93;5.93;;;-0.80;98.00;;;;;;5035384;28;20038;-70
2021/01/07 00:35:39;;;;;;;8.70;5.93;;;-0.90;98.00;;;;;;5035744;28;20024;-69
2021/01/07 00:38:07;;;;;;;8.82;6.05;;;-0.90;98.00;;;;;;5034260;28;20060;-67
2021/01/07 00:40:36;;;;;;;9.32;6.35;;;-0.80;98.00;;;;;;5028989;28;20500;-67
2021/01/07 00:43:03;;;;;;;8.13;5.25;;;-0.80;98.00;;;;;;5036887;28;20037;-67
2021/01/07 00:45:29;;;;;;;8.65;6.15;;;-0.80;98.00;;;;;;5036835;28;20029;-68
2021/01/07 00:47:55;;;;;;;10.05;7.13;;;-0.80;98.00;;;;;;5035643;28;20048;-69
2021/01/07 00:50:24;;;;;;;8.45;5.88;;;-0.80;98.00;;;;;;5034204;28;20374;-68
2021/01/07 00:52:50;;;;;;;9.43;5.82;;;-0.80;98.00;;;;;;5036076;28;20050;-69
2021/01/07 00:55:16;;;;;;;9.90;5.88;;;-0.80;98.00;;;;;;5034898;28;20306;-68
2021/01/07 00:57:43;;;;;;;7.43;5.05;;;-0.80;98.00;;;;;;5036943;28;20112;-69
2021/01/07 01:00:10;;;;;;;8.40;5.70;;;-0.80;98.00;;;;;;5035413;28;20029;-68
2021/01/07 01:02:36;;;;;;;8.13;6.13;;;-0.80;98.00;;;;;;5035747;28;20021;-69
2021/01/07 01:05:03;;;;;;;9.38;6.18;;;-0.90;98.00;;;;;;5034387;28;20101;-68
2021/01/07 01:07:29;;;;;;;8.55;5.75;;;-0.80;98.00;;;;;;5035442;28;20080;-69
2021/01/07 01:09:54;;;;;;;8.95;6.05;;;-0.80;98.00;;;;;;5038663;28;20032;-70
2021/01/07 01:12:20;;;;;;;7.90;5.70;;;-0.90;98.00;;;;;;5039200;28;20410;-69
2021/01/07 01:14:47;;;;;;;8.68;6.15;;;-0.80;98.00;;;;;;5039304;28;20388;-70
2021/01/07 01:17:12;;;;;;;8.32;5.53;;;-0.80;98.00;;;;;;5034738;28;20026;-68
2021/01/07 01:19:38;;;;;;;10.57;6.40;;;-0.80;98.00;;;;;;5042506;28;20434;-70
2021/01/07 01:22:04;;;;;;;10.02;6.20;;;-0.80;98.00;;;;;;5038300;28;20305;-69
2021/01/07 01:24:30;;;;;;;9.00;5.95;;;-0.80;98.00;;;;;;5036068;28;20033;-68
2021/01/07 01:26:57;;;;;;;9.25;6.30;;;-0.80;98.00;;;;;;5032344;28;20113;-68
2021/01/07 01:29:23;;;;;;;12.23;7.35;;;-0.90;98.00;;;;;;5039064;28;20167;-70
2021/01/07 01:31:49;;;;;;;9.32;6.45;;;-0.80;98.00;;;;;;5038579;28;20314;-70
2021/01/07 01:34:19;;;;;;;9.93;6.80;;;-0.80;98.00;;;;;;5040556;28;20025;-68
2021/01/07 01:36:45;;;;;;;8.70;6.03;;;-0.80;98.00;;;;;;5035179;28;20033;-72
2021/01/07 01:39:11;;;;;;;11.63;7.18;;;-0.80;98.00;;;;;;5041917;28;20025;-68
2021/01/07 01:41:46;;;;;;;11.98;6.80;;;-0.80;98.00;;;;;;5037056;28;20108;-70
2021/01/07 01:44:12;;;;;;;10.25;6.88;;;-0.80;98.00;;;;;;5049559;28;20025;-68
2021/01/07 01:46:38;;;;;;;13.38;6.07;;;-0.80;98.00;;;;;;5038810;28;20030;-67
2021/01/07 01:49:05;;;;;;;9.95;6.63;;;-0.80;98.00;;;;;;5037253;28;20322;-68
2021/01/07 01:51:35;;;;;;;10.43;6.70;;;-0.80;98.00;;;;;;5036807;28;20111;-68
2021/01/07 01:54:05;;;;;;;10.07;6.68;;;-0.70;98.00;;;;;;5053055;28;20482;-69
2021/01/07 01:56:31;;;;;;;11.68;7.38;;;-0.70;98.00;;;;;;5047620;28;20421;-70
2021/01/07 01:58:59;;;;;;;9.73;7.13;;;-0.70;98.00;;;;;;5043188;28;20026;-68
2021/01/07 02:01:24;;;;;;;11.80;6.57;;;-0.70;98.00;;;;;;5037701;28;20083;-69
2021/01/07 02:03:51;;;;;;;10.15;6.97;;;-0.80;98.00;;;;;;5028850;28;20025;-68
2021/01/07 02:06:20;;;;;;;12.18;7.35;;;-0.80;98.00;;;;;;5046614;28;20032;-69
2021/01/07 02:08:47;;;;;;;13.65;7.75;;;-0.80;98.00;;;;;;5042024;28;20410;-68
2021/01/07 02:11:14;;;;;;;10.68;7.63;;;-0.80;98.00;;;;;;5040484;28;20033;-69
2021/01/07 02:13:43;;;;;;;10.40;7.18;;;-0.80;98.00;;;;;;5052870;28;20029;-69
2021/01/07 02:16:09;;;;;;;9.90;7.32;;;-0.80;98.00;;;;;;5042295;28;20022;-69
2021/01/07 02:18:34;;;;;;;13.98;7.82;;;-0.70;98.00;;;;;;5045134;28;20028;-68
2021/01/07 02:21:00;;;;;;;10.57;7.20;;;-0.70;98.00;;;;;;5048383;28;20029;-69
2021/01/07 02:23:26;;;;;;;12.73;7.20;;;-0.70;98.00;;;;;;5046355;28;20032;-67
2021/01/07 02:25:53;;;;;;;10.55;7.18;;;-0.70;98.00;;;;;;5051351;28;20424;-70
2021/01/07 02:28:21;;;;;;;10.82;7.38;;;-0.70;98.00;;;;;;5039783;28;20029;-69
2021/01/07 02:30:47;;;;;;;10.02;7.13;;;-0.70;98.00;;;;;;5036604;28;20426;-68
2021/01/07 02:33:13;;;;;;;13.90;7.80;;;-0.70;98.00;;;;;;5045850;28;20101;-68
2021/01/07 02:35:42;;;;;;;12.98;7.93;;;-0.70;98.00;;;;;;5043664;28;20028;-68
2021/01/07 02:38:07;;;;;;;11.63;7.75;;;-0.80;98.00;;;;;;5041621;28;20418;-68
2021/01/07 02:40:34;;;;;;;10.98;7.20;;;-0.80;98.00;;;;;;5034645;28;20025;-71
2021/01/07 02:43:03;;;;;;;12.32;7.90;;;-0.80;98.00;;;;;;5044821;28;20029;-71
2021/01/07 02:45:29;;;;;;;11.00;7.00;;;-0.80;98.00;;;;;;5037386;28;20052;-70
2021/01/07 02:47:54;;;;;;;10.60;7.25;;;-0.80;98.00;;;;;;5017139;28;20042;-71
2021/01/07 02:50:20;;;;;;;12.10;8.18;;;-0.80;98.00;;;;;;5023410;28;20033;-69
2021/01/07 02:52:46;;;;;;;13.25;8.65;;;-0.80;98.00;;;;;;5034555;28;20054;-70
2021/01/07 02:55:12;;;;;;;11.40;7.63;;;-0.80;98.00;;;;;;5032791;28;20036;-68
2021/01/07 02:57:44;;;;;;;12.23;8.05;;;-0.70;98.00;;;;;;5034041;28;20080;-70
2021/01/07 03:00:11;;;;;;;13.27;8.43;;;-0.70;98.00;;;;;;5041019;28;20029;-70
2021/01/07 03:02:36;;;;;;;13.65;8.70;;;-0.80;98.00;;;;;;5035410;28;20033;-70
2021/01/07 03:05:03;;;;;;;16.70;8.10;;;-0.80;98.00;;;;;;5034956;28;20068;-70
2021/01/07 03:07:28;;;;;;;10.02;7.30;;;-0.70;98.00;;;;;;5028668;28;20036;-70
2021/01/07 03:09:57;;;;;;;12.00;7.80;;;-0.70;98.00;;;;;;5033175;28;20033;-70
2021/01/07 03:12:23;;;;;;;18.73;8.25;;;-0.70;98.00;;;;;;5035108;28;20036;-70
2021/01/07 03:14:49;;;;;;;11.18;7.50;;;-0.70;98.00;;;;;;5034501;28;20310;-70
2021/01/07 03:17:18;;;;;;;11.73;7.93;;;-0.70;98.00;;;;;;5034197;28;20022;-70
2021/01/07 03:19:43;;;;;;;10.82;7.78;;;-0.70;98.00;;;;;;5034891;28;20083;-70
2021/01/07 03:22:09;;;;;;;10.57;6.68;;;-0.70;98.00;;;;;;5034824;28;20108;-70
2021/01/07 03:24:36;;;;;;;9.90;7.38;;;-0.60;98.00;;;;;;5035096;28;20018;-70
2021/01/07 03:27:05;;;;;;;13.32;7.30;;;-0.60;98.00;;;;;;5032217;28;20026;-70
2021/01/07 03:29:31;;;;;;;10.38;7.38;;;-0.60;98.00;;;;;;5034429;28;20397;-70
2021/01/07 03:31:57;;;;;;;14.07;7.57;;;-0.60;98.00;;;;;;5034766;28;20081;-70
2021/01/07 03:34:23;;;;;;;10.38;7.40;;;-0.70;98.00;;;;;;5034934;28;20364;-70
2021/01/07 03:36:49;;;;;;;10.23;6.95;;;-0.70;98.00;;;;;;5034207;28;20060;-70
2021/01/07 03:39:15;;;;;;;12.02;8.02;;;-0.70;98.00;;;;;;5034075;28;20053;-70
2021/01/07 03:41:41;;;;;;;12.25;8.38;;;-0.70;98.00;;;;;;5032447;28;20017;-70
2021/01/07 03:44:10;;;;;;;11.50;7.78;;;-0.70;98.00;;;;;;5033710;28;20033;-68
2021/01/07 03:46:37;;;;;;;10.50;7.68;;;-0.70;98.00;;;;;;5033437;28;20033;-70
2021/01/07 03:49:03;;;;;;;9.93;6.55;;;-0.70;98.00;;;;;;5033740;28;20083;-69
2021/01/07 03:51:32;;;;;;;10.35;7.07;;;-0.70;98.00;;;;;;5034419;28;20129;-69
2021/01/07 03:53:58;;;;;;;11.25;6.85;;;-0.80;98.00;;;;;;5032248;28;20071;-69
2021/01/07 03:56:26;;;;;;;11.18;7.35;;;-0.80;98.00;;;;;;5035790;28;20049;-68
2021/01/07 03:58:52;;;;;;;13.10;7.90;;;-0.80;98.00;;;;;;5036700;28;20038;-70
2021/01/07 04:01:17;;;;;;;10.75;7.32;;;-0.70;98.00;;;;;;5037124;28;20080;-70
2021/01/07 04:03:43;;;;;;;10.95;7.45;;;-0.80;98.00;;;;;;5026433;28;20374;-70
2021/01/07 04:06:09;;;;;;;62.05;35.17;;;-0.70;98.00;;;;;;5037786;28;20041;-68
2021/01/07 04:08:36;;;;;;;71.60;43.85;;;-0.70;98.00;;;;;;5036864;28;20022;-69
2021/01/07 04:11:02;;;;;;;12.80;8.32;;;-0.70;98.00;;;;;;5034934;28;20552;-68
2021/01/07 04:13:28;;;;;;;12.30;8.02;;;-0.70;98.00;;;;;;5035670;28;20335;-70
2021/01/07 04:15:54;;;;;;;11.40;7.70;;;-0.70;98.00;;;;;;5037505;28;20022;-70
2021/01/07 04:18:20;;;;;;;9.57;6.97;;;-0.60;98.00;;;;;;5036814;28;20029;-69
2021/01/07 04:20:46;;;;;;;11.63;7.20;;;-0.60;98.00;;;;;;5037436;28;20027;-69
2021/01/07 04:23:11;;;;;;;11.55;7.65;;;-0.60;98.00;;;;;;5036992;28;20036;-69
2021/01/07 04:25:40;;;;;;;12.82;9.05;;;-0.60;98.00;;;;;;5034710;28;20040;-69
2021/01/07 04:28:05;;;;;;;12.63;7.95;;;-0.70;98.00;;;;;;5036573;28;20030;-68
2021/01/07 04:30:31;;;;;;;11.52;7.72;;;-0.60;98.00;;;;;;5036861;28;20029;-68
2021/01/07 04:32:56;;;;;;;13.32;8.23;;;-0.70;98.00;;;;;;5036593;28;20373;-69
2021/01/07 04:35:22;;;;;;;10.50;7.15;;;-0.70;98.00;;;;;;5036909;28;20031;-70
2021/01/07 04:37:48;;;;;;;11.40;7.72;;;-0.70;98.00;;;;;;5037074;28;20018;-69
2021/01/07 04:40:14;;;;;;;10.50;7.65;;;-0.80;98.00;;;;;;5034760;28;20358;-71
2021/01/07 04:42:40;;;;;;;11.23;7.00;;;-0.80;98.00;;;;;;5036124;28;20034;-70
2021/01/07 04:45:06;;;;;;;10.88;7.95;;;-0.70;98.00;;;;;;5036620;28;20060;-68
2021/01/07 04:47:32;;;;;;;12.23;7.47;;;-0.80;98.00;;;;;;5036930;28;20529;-70
2021/01/07 04:49:58;;;;;;;164.55;74.88;;;-0.80;98.00;;;;;;5036432;28;20088;-70
2021/01/07 04:52:24;;;;;;;48.13;26.95;;;-0.80;98.00;;;;;;5036349;28;20060;-68
2021/01/07 04:54:52;;;;;;;23.13;14.05;;;-0.70;98.00;;;;;;5037102;28;20033;-69
2021/01/07 04:57:19;;;;;;;18.15;11.55;;;-0.80;98.00;;;;;;5036666;28;20352;-69
2021/01/07 04:59:47;;;;;;;20.05;13.35;;;-0.70;98.00;;;;;;5037199;28;20017;-70
2021/01/07 05:02:14;;;;;;;13.63;9.70;;;-0.80;98.00;;;;;;5034319;28;20122;-68
2021/01/07 05:04:51;;;;;;;12.27;8.98;;;-0.70;98.00;;;;;;5036721;28;20022;-71
2021/01/07 05:07:21;;;;;;;18.73;12.80;;;-0.70;98.00;;;;;;5034536;28;20426;-67
2021/01/07 05:09:58;;;;;;;12.95;8.40;;;-0.70;98.00;;;;;;5035169;28;20029;-69
2021/01/07 05:12:26;;;;;;;16.10;10.77;;;-0.70;98.00;;;;;;5034172;28;20018;-69
2021/01/07 05:14:53;;;;;;;17.55;11.45;;;-0.70;98.00;;;;;;5035848;28;20418;-69
2021/01/07 05:17:27;;;;;;;14.52;9.15;;;-0.90;98.00;;;;;;5035190;28;20044;-68
2021/01/07 05:19:54;;;;;;;12.32;8.75;;;-0.90;98.00;;;;;;5034991;28;20029;-69
2021/01/07 05:22:33;;;;;;;13.48;10.07;;;-0.90;98.00;;;;;;5035517;28;20090;-69
2021/01/07 05:25:00;;;;;;;15.07;9.57;;;-1.00;98.00;;;;;;5033986;28;20482;-68
2021/01/07 05:27:26;;;;;;;13.80;10.05;;;-1.00;98.00;;;;;;5035805;28;20025;-69
2021/01/07 05:29:58;;;;;;;16.33;10.32;;;-0.90;98.00;;;;;;5035844;28;20040;-68
2021/01/07 05:32:34;;;;;;;14.63;10.68;;;-1.00;98.00;;;;;;5035100;28;20023;-68
2021/01/07 05:35:02;;;;;;;12.20;8.43;;;-1.00;98.00;;;;;;5030581;28;20017;-70
2021/01/07 05:37:38;;;;;;;17.88;8.95;;;-1.00;98.00;;;;;;5035839;28;20422;-70
2021/01/07 05:40:08;;;;;;;11.73;7.93;;;-1.10;98.00;;;;;;5033263;28;20053;-70
2021/01/07 05:42:45;;;;;;;12.82;7.75;;;-1.10;98.00;;;;;;5034610;28;20021;-70
2021/01/07 05:45:14;;;;;;;9.65;6.95;;;-1.00;98.00;;;;;;5040047;28;20025;-70
2021/01/07 05:47:45;;;;;;;11.80;7.13;;;-0.90;98.00;;;;;;5045023;28;20045;-70
2021/01/07 05:50:12;;;;;;;11.18;7.63;;;-1.00;98.00;;;;;;5029974;28;20029;-71
2021/01/07 05:52:43;;;;;;;13.38;8.20;;;-1.00;98.00;;;;;;5035021;28;20041;-70
2021/01/07 05:55:12;;;;;;;13.02;8.30;;;-1.00;98.00;;;;;;5033377;28;20029;-70
2021/01/07 05:57:40;;;;;;;10.10;7.18;;;-1.10;98.00;;;;;;5034721;28;20057;-69
2021/01/07 06:00:10;;;;;;;11.13;7.70;;;-1.20;98.00;;;;;;5034724;28;20037;-70
2021/01/07 06:02:37;;;;;;;14.43;8.73;;;-1.20;98.00;;;;;;5034380;28;20056;-70
2021/01/07 06:05:06;;;;;;;14.15;9.70;;;-1.10;98.00;;;;;;5034659;28;20029;-70
2021/01/07 06:07:32;;;;;;;10.20;7.72;;;-1.10;98.00;;;;;;5034292;28;20087;-70
2021/01/07 06:09:59;;;;;;;10.25;6.65;;;-1.00;98.00;;;;;;5034009;28;20037;-70
2021/01/07 06:12:25;;;;;;;11.23;6.53;;;-1.00;98.00;;;;;;5033538;28;20037;-69
2021/01/07 06:14:51;;;;;;;12.68;8.23;;;-1.00;98.00;;;;;;5034718;28;20017;-69
2021/01/07 06:17:21;;;;;;;12.25;7.40;;;-1.10;98.00;;;;;;5034755;28;20076;-70
2021/01/07 06:19:52;;;;;;;13.30;8.27;;;-1.10;98.00;;;;;;5035163;28;20029;-70
2021/01/07 06:22:18;;;;;;;14.57;8.23;;;-1.10;98.00;;;;;;5033035;28;20034;-70
2021/01/07 06:24:49;;;;;;;11.75;7.93;;;-1.10;98.00;;;;;;5033159;28;20114;-69
2021/01/07 06:27:37;;;;;;;9.95;6.10;;;-1.10;98.00;;;;;;5034662;28;20418;-70
2021/01/07 06:30:02;;;;;;;24.55;12.75;;;-1.10;98.00;;;;;;5025893;28;20330;-69
2021/01/07 06:32:29;;;;;;;27.33;17.48;;;-1.10;98.00;;;;;;5034395;28;20033;-68
2021/01/07 06:35:00;;;;;;;31.30;17.58;;;-1.10;98.00;;;;;;5032903;28;20044;-70
2021/01/07 06:37:31;;;;;;;21.52;13.57;;;-1.00;98.00;;;;;;5034197;28;20401;-69
2021/01/07 06:39:58;;;;;;;13.55;8.43;;;-1.00;98.00;;;;;;5032682;28;20379;-70
2021/01/07 06:42:24;;;;;;;14.15;7.93;;;-1.00;98.00;;;;;;5020008;28;20029;-68
2021/01/07 06:44:52;;;;;;;15.32;9.30;;;-1.00;98.00;;;;;;5034163;28;20334;-69
2021/01/07 06:47:19;;;;;;;10.90;7.07;;;-0.90;98.00;;;;;;5033685;28;20065;-70
2021/01/07 06:49:45;;;;;;;9.10;5.95;;;-0.90;98.00;;;;;;5034820;28;20537;-67
2021/01/07 06:52:12;;;;;;;13.43;9.18;;;-1.00;98.00;;;;;;5033761;28;20041;-69
2021/01/07 06:54:41;;;;;;;13.18;8.98;;;-1.00;98.00;;;;;;5032817;28;20030;-68
2021/01/07 06:57:12;;;;;;;9.30;6.10;;;-1.00;98.00;;;;;;5034380;28;20034;-69
2021/01/07 06:59:56;;;;;;;8.13;5.03;;;-0.90;98.00;;;;;;5034643;28;20132;-68
2021/01/07 07:02:23;;;;;;;83.20;44.72;;;-0.80;98.00;;;;;;5029377;28;20029;-70
2021/01/07 07:05:04;;;;;;;19.50;11.77;;;-0.90;98.00;;;;;;5034462;28;20034;-70
2021/01/07 07:07:39;;;;;;;32.30;19.92;;;-0.90;98.00;;;;;;5034733;28;20026;-68
2021/01/07 07:10:23;;;;;;;13.07;8.55;;;-0.90;98.00;;;;;;5031390;28;20083;-69
2021/01/07 07:12:50;;;;;;;14.23;10.18;;;-1.00;98.00;;;;;;5033851;28;20094;-68
2021/01/07 07:15:17;;;;;;;23.40;14.43;;;-1.00;98.00;;;;;;5034333;28;20029;-68
2021/01/07 07:17:46;;;;;;;9.60;6.72;;;-1.00;98.00;;;;;;5034904;28;20017;-67
2021/01/07 07:20:18;;;;;;;9.32;7.00;;;-1.10;98.00;;;;;;5031106;28;20054;-68
2021/01/07 07:22:44;;;;;;;11.52;7.55;;;-1.10;98.00;;;;;;5033547;28;20030;-68
2021/01/07 07:25:12;;;;;;;10.27;6.95;;;-1.10;98.00;;;;;;5033294;28;20118;-68
2021/01/07 07:27:49;;;;;;;11.20;7.22;;;-1.10;98.00;;;;;;5034707;28;20029;-69
2021/01/07 07:30:37;;;;;;;10.98;6.93;;;-1.00;98.00;;;;;;5034344;28;20325;-68
2021/01/07 07:33:04;;;;;;;10.00;6.55;;;-1.00;98.00;;;;;;5035063;28;20045;-69
2021/01/07 07:35:34;;;;;;;8.90;6.75;;;-1.10;98.00;;;;;;5037512;28;20033;-67
2021/01/07 07:38:00;;;;;;;8.93;5.90;;;-1.00;98.00;;;;;;5038172;28;20032;-68
2021/01/07 07:40:34;;;;;;;7.35;4.82;;;-0.90;98.00;;;;;;5034548;28;20037;-66
2021/01/07 07:43:00;;;;;;;9.82;6.97;;;-0.70;98.00;;;;;;5036513;28;20068;-67
2021/01/07 07:45:28;;;;;;;9.18;5.53;;;-0.70;98.00;;;;;;5023817;28;20023;-68
2021/01/07 07:47:54;;;;;;;9.13;6.50;;;-0.80;98.00;;;;;;5037932;28;20057;-68
2021/01/07 07:50:29;;;;;;;8.20;5.68;;;-0.80;98.00;;;;;;5037410;28;20366;-68
2021/01/07 07:53:07;;;;;;;8.98;6.28;;;-0.80;98.00;;;;;;5038211;28;20034;-67
2021/01/07 07:55:37;;;;;;;12.73;9.07;;;-0.80;98.00;;;;;;5036727;28;20354;-66
2021/01/07 07:58:19;;;;;;;13.52;9.73;;;-0.80;98.00;;;;;;5037443;28;20295;-66
2021/01/07 08:00:53;;;;;;;11.25;8.80;;;-0.70;98.00;;;;;;5036099;28;20109;-67
2021/01/07 08:03:31;;;;;;;15.52;11.60;;;-0.70;98.00;;;;;;5034807;28;20112;-68
2021/01/07 08:06:00;;;;;;;13.25;7.75;;;-0.60;98.00;;;;;;5036343;28;20065;-66
2021/01/07 08:08:27;;;;;;;15.80;8.25;;;-0.50;98.00;;;;;;5037964;28;20022;-66
2021/01/07 08:10:54;;;;;;;9.90;6.57;;;-0.40;98.00;;;;;;5036847;28;20114;-68
2021/01/07 08:13:21;;;;;;;8.63;5.97;;;-0.70;98.00;;;;;;5036601;28;20041;-68
2021/01/07 08:15:52;;;;;;;13.70;9.32;;;-0.70;98.00;;;;;;5036524;28;20322;-66
2021/01/07 08:18:20;;;;;;;9.63;6.47;;;-0.70;98.00;;;;;;5037797;28;20060;-66
2021/01/07 08:20:47;;;;;;;10.52;6.95;;;-0.60;98.00;;;;;;5037351;28;20092;-66
2021/01/07 08:23:14;;;;;;;10.07;6.63;;;-0.60;98.00;;;;;;5036524;28;20037;-66
2021/01/07 08:25:43;;;;;;;9.30;6.88;;;-0.40;98.00;;;;;;5035072;28;20025;-66
2021/01/07 08:28:21;;;;;;;10.52;7.43;;;-0.40;98.00;;;;;;5029098;28;20124;-67
2021/01/07 08:30:54;;;;;;;9.57;5.78;;;-0.40;98.00;;;;;;5037423;28;20034;-68
2021/01/07 08:33:23;;;;;;;7.88;5.68;;;-0.30;98.00;;;;;;5029312;28;20033;-69
2021/01/07 08:35:50;;;;;;;9.35;6.35;;;-0.20;98.00;;;;;;5030441;28;20025;-68
2021/01/07 08:38:26;;;;;;;7.97;5.80;;;-0.10;98.00;;;;;;5036028;28;20033;-68
2021/01/07 08:40:54;;;;;;;10.63;7.75;;;-0.10;98.00;;;;;;5035197;28;20013;-67
2021/01/07 08:43:20;;;;;;;9.70;6.82;;;-0.10;98.00;;;;;;5029983;28;20026;-68
2021/01/07 08:45:45;;;;;;;10.23;7.00;;;0.00;98.00;;;;;;5030304;28;20317;-68
2021/01/07 08:48:14;;;;;;;12.68;7.35;;;0.20;98.00;;;;;;5036878;28;20029;-67
2021/01/07 08:50:40;;;;;;;11.70;8.38;;;0.40;98.00;;;;;;5036666;28;20057;-67
2021/01/07 08:53:08;;;;;;;8.10;5.57;;;0.50;98.00;;;;;;5036364;28;20018;-68
2021/01/07 08:55:48;;;;;;;8.50;5.85;;;0.60;98.00;;;;;;5035719;28;20017;-68
2021/01/07 08:58:21;;;;;;;7.93;5.00;;;0.80;98.00;;;;;;5036954;28;20025;-68
2021/01/07 09:00:48;;;;;;;11.27;5.55;;;0.90;98.00;;;;;;5034132;28;20032;-68
2021/01/07 09:03:15;;;;;;;7.28;4.60;;;1.10;98.00;;;;;;5035337;28;20028;-68
2021/01/07 09:05:41;;;;;;;7.32;5.10;;;1.30;98.00;;;;;;5035662;28;20029;-67
2021/01/07 09:08:14;;;;;;;27.38;15.98;;;1.50;98.00;;;;;;5037146;28;20027;-67
2021/01/07 09:10:41;;;;;;;17.42;9.98;;;1.40;98.00;;;;;;5035473;28;20068;-71
2021/01/07 09:13:25;;;;;;;21.13;10.07;;;1.10;98.00;;;;;;5036142;28;20021;-67
2021/01/07 09:15:51;;;;;;;15.27;9.63;;;0.90;98.00;;;;;;5035748;28;20029;-69
2021/01/07 09:18:18;;;;;;;13.75;9.70;;;0.90;98.00;;;;;;5036433;28;20083;-68
2021/01/07 09:20:47;;;;;;;14.38;10.05;;;0.90;98.00;;;;;;5036478;28;20033;-69
2021/01/07 09:23:16;;;;;;;21.85;12.85;;;0.80;98.00;;;;;;5035061;28;20111;-68
2021/01/07 09:25:50;;;;;;;19.17;12.15;;;0.90;98.00;;;;;;5033710;28;20030;-69
2021/01/07 09:28:16;;;;;;;18.00;11.15;;;1.00;98.00;;;;;;5029318;28;20038;-69
2021/01/07 09:30:42;;;;;;;14.15;9.73;;;1.20;98.00;;;;;;5034881;28;20090;-68
2021/01/07 09:33:07;;;;;;;17.83;10.95;;;1.20;98.00;;;;;;5030839;28;20116;-69
2021/01/07 09:35:33;;;;;;;20.15;12.27;;;1.20;98.00;;;;;;5035536;28;20033;-70
2021/01/07 09:38:00;;;;;;;20.50;15.10;;;1.40;98.00;;;;;;5034575;28;20026;-69
2021/01/07 09:40:26;;;;;;;17.40;11.18;;;1.30;98.00;;;;;;5034033;28;20025;-70
2021/01/07 09:42:52;;;;;;;15.57;9.15;;;1.40;98.00;;;;;;5035460;28;20026;-70
2021/01/07 09:45:17;;;;;;;20.58;13.55;;;1.60;98.00;;;;;;5035808;28;20037;-69
2021/01/07 09:47:43;;;;;;;13.32;9.85;;;1.80;98.00;;;;;;5035365;28;20031;-70
2021/01/07 09:50:11;;;;;;;17.88;9.63;;;1.90;97.40;;;;;;5035207;28;20033;-69
2021/01/07 09:52:40;;;;;;;17.38;10.57;;;2.00;97.30;;;;;;5034899;28;20080;-70
2021/01/07 09:55:10;;;;;;;15.50;11.02;;;1.90;96.80;;;;;;5034242;28;20760;-70
2021/01/07 09:57:36;;;;;;;13.57;9.98;;;1.70;97.70;;;;;;5049661;28;20052;-71
2021/01/07 10:00:05;;;;;;;14.77;10.40;;;1.90;97.50;;;;;;5054367;28;20024;-71
2021/01/07 10:02:31;;;;;;;16.73;10.13;;;2.00;97.60;;;;;;5032727;28;20025;-70
2021/01/07 10:04:56;;;;;;;15.95;9.82;;;2.10;97.10;;;;;;5021756;28;20041;-71
2021/01/07 10:07:22;;;;;;;16.98;9.60;;;2.10;97.00;;;;;;5021804;28;20026;-72
2021/01/07 10:09:49;;;;;;;14.52;9.35;;;2.20;96.90;;;;;;5035120;28;20082;-72
2021/01/07 10:12:15;;;;;;;13.02;8.95;;;2.10;96.90;;;;;;5035679;28;20052;-72
2021/01/07 10:14:41;;;;;;;15.52;9.82;;;1.90;96.60;;;;;;5023230;28;20030;-72
2021/01/07 10:17:08;;;;;;;20.70;13.48;;;1.60;97.30;;;;;;5035702;28;20028;-72
2021/01/07 10:19:37;;;;;;;15.82;10.77;;;1.60;97.80;;;;;;5035347;28;20026;-70
2021/01/07 10:22:04;;;;;;;13.45;9.32;;;1.60;98.00;;;;;;5035714;28;20097;-71
2021/01/07 10:24:32;;;;;;;15.57;10.20;;;1.60;98.00;;;;;;5040523;28;20030;-71
2021/01/07 10:26:59;;;;;;;19.95;12.77;;;1.60;98.00;;;;;;5034187;28;20025;-71
2021/01/07 10:29:27;;;;;;;15.93;12.07;;;1.60;98.00;;;;;;5034959;28;20104;-71
2021/01/07 10:31:55;;;;;;;16.92;12.38;;;1.60;98.00;;;;;;5034237;28;20029;-69
2021/01/07 10:34:21;;;;;;;22.48;13.98;;;1.60;98.00;;;;;;5043208;28;20037;-69
2021/01/07 10:36:51;;;;;;;19.33;12.40;;;1.60;98.00;;;;;;5035358;28;20021;-71
2021/01/07 10:39:20;;;;;;;20.02;11.00;;;1.30;98.00;;;;;;5033792;28;20112;-71
2021/01/07 10:41:49;;;;;;;14.38;9.93;;;1.20;98.00;;;;;;5047537;28;20025;-70
2021/01/07 10:44:17;;;;;;;22.90;12.52;;;1.10;98.00;;;;;;5030305;28;20033;-70
2021/01/07 10:46:43;;;;;;;31.40;16.20;;;1.00;98.00;;;;;;5035132;28;20057;-70
2021/01/07 10:49:13;;;;;;;19.52;13.13;;;1.10;98.00;;;;;;5037860;28;20026;-70
2021/01/07 10:51:53;;;;;;;15.35;10.45;;;1.20;98.00;;;;;;5016233;28;20203;-69
2021/01/07 10:54:33;;;;;;;14.20;9.48;;;1.30;98.00;;;;;;5034450;28;20175;-69
2021/01/07 10:57:38;;;;;;;18.90;9.65;;;1.20;98.00;;;;;;5034036;28;20021;-68
2021/01/07 11:00:08;;;;;;;17.85;11.52;;;1.10;98.00;;;;;;5035233;28;20503;-67
2021/01/07 11:02:56;;;;;;;17.00;10.40;;;1.00;98.00;;;;;;5041380;28;20052;-68
2021/01/07 11:05:36;;;;;;;15.32;10.55;;;1.10;98.00;;;;;;5052310;28;20051;-69
2021/01/07 11:08:32;;;;;;;19.52;10.07;;;1.20;98.00;;;;;;5030402;28;20017;-69
2021/01/07 11:11:32;;;;;;;24.95;15.48;;;1.30;98.00;;;;;;5038047;28;20025;-69
2021/01/07 11:14:05;;;;;;;16.10;10.38;;;1.50;98.00;;;;;;5037851;28;20029;-68
2021/01/07 11:17:00;;;;;;;15.57;10.67;;;1.80;98.00;;;;;;5034884;28;20116;-68
2021/01/07 11:19:27;;;;;;;16.88;12.02;;;1.90;98.00;;;;;;5043833;28;20756;-68
2021/01/07 11:22:15;;;;;;;18.17;10.95;;;2.10;98.00;;;;;;5033656;28;20432;-69
2021/01/07 11:24:42;;;;;;;16.98;11.80;;;2.50;97.80;;;;;;5036376;28;20041;-70
2021/01/07 11:27:13;;;;;;;14.85;10.10;;;2.70;96.20;;;;;;5037414;28;20099;-71
2021/01/07 11:29:39;;;;;;;16.00;10.43;;;2.90;95.90;;;;;;5038822;28;20053;-71
2021/01/07 11:32:05;;;;;;;15.20;9.82;;;2.80;95.10;;;;;;5037924;28;20021;-71
2021/01/07 11:34:32;;;;;;;12.80;8.02;;;2.80;94.90;;;;;;5045320;28;20329;-69
2021/01/07 11:37:07;;;;;;;10.65;7.57;;;2.60;94.90;;;;;;5037834;28;20028;-70
2021/01/07 11:39:52;;;;;;;13.63;8.50;;;2.20;95.50;;;;;;5036338;28;20428;-71
2021/01/07 11:42:36;;;;;;;14.95;8.90;;;1.90;96.40;;;;;;5036380;28;20310;-69
2021/01/07 11:45:18;;;;;;;12.45;7.82;;;1.60;97.10;;;;;;5037180;28;20370;-70
2021/01/07 11:47:56;;;;;;;16.60;9.85;;;1.60;97.00;;;;;;5036824;28;20033;-71
2021/01/07 11:50:23;;;;;;;13.98;9.55;;;1.60;97.80;;;;;;5031783;28;20033;-70
2021/01/07 11:52:51;;;;;;;14.30;9.18;;;1.70;98.00;;;;;;5037293;28;20038;-71
2021/01/07 11:55:18;;;;;;;16.10;9.85;;;1.90;97.70;;;;;;5027708;28;20300;-70
2021/01/07 11:57:46;;;;;;;13.25;8.75;;;1.80;97.30;;;;;;5024023;28;20022;-70
2021/01/07 12:00:14;;;;;;;17.48;11.00;;;2.10;97.70;;;;;;5037258;28;20037;-70
2021/01/07 12:02:45;;;;;;;13.13;8.10;;;2.10;96.70;;;;;;5037516;28;20326;-71
2021/01/07 12:05:18;;;;;;;11.82;7.43;;;2.00;96.00;;;;;;5037709;28;20445;-71
2021/01/07 12:08:02;;;;;;;13.60;8.35;;;1.90;95.90;;;;;;5038020;28;20075;-70
2021/01/07 12:10:40;;;;;;;12.75;7.88;;;1.80;97.00;;;;;;5036475;28;20127;-70
2021/01/07 12:13:34;;;;;;;10.93;7.20;;;1.90;96.90;;;;;;5030729;28;20034;-70
2021/01/07 12:16:00;;;;;;;16.13;10.57;;;1.80;97.20;;;;;;5038961;28;20079;-70
2021/01/07 12:18:27;;;;;;;12.30;7.78;;;1.70;97.10;;;;;;5037664;28;20025;-68
2021/01/07 12:20:55;;;;;;;15.52;9.18;;;1.90;96.00;;;;;;5034016;28;20025;-67
2021/01/07 12:23:22;;;;;;;15.15;9.18;;;2.00;95.90;;;;;;5037412;28;20034;-68
2021/01/07 12:25:48;;;;;;;17.00;11.18;;;2.00;96.50;;;;;;5035975;28;20100;-69
2021/01/07 12:28:19;;;;;;;13.93;8.80;;;2.10;96.50;;;;;;5037382;28;20026;-68
2021/01/07 12:30:47;;;;;;;12.95;9.30;;;2.10;95.80;;;;;;5036331;28;20366;-68
2021/01/07 12:33:47;;;;;;;17.83;10.15;;;2.10;95.70;;;;;;5026468;28;20331;-69
2021/01/07 12:36:25;;;;;;;14.55;9.05;;;2.20;96.40;;;;;;5036753;28;20414;-68
2021/01/07 12:39:02;;;;;;;12.57;8.02;;;2.20;96.40;;;;;;5036058;28;20025;-68
2021/01/07 12:41:35;;;;;;;11.10;7.13;;;2.30;95.20;;;;;;5034360;28;20029;-68
2021/01/07 12:44:06;;;;;;;15.43;8.90;;;2.80;94.70;;;;;;5036504;28;20029;-69
2021/01/07 12:46:37;;;;;;;13.07;8.05;;;3.10;93.40;;;;;;5035964;28;20044;-69
2021/01/07 12:49:02;;;;;;;17.92;9.93;;;3.20;93.10;;;;;;5037210;28;20481;-68
2021/01/07 12:51:30;;;;;;;23.85;13.77;;;3.30;92.00;;;;;;5034660;28;20137;-69